sensor_id;sensor_type;location;lat;lon;timestamp;P1;durP1;ratioP1;P2;durP2;ratioP2
25667;SDS011;18003;-33.830;151.202;2023-08-06T00:02:16;6.37;;;3.02;;
25667;SDS011;18003;-33.830;151.202;2023-08-06T00:04:46;12.98;;;3.98;;
25667;SDS011;18003;-33.830;151.202;2023-08-06T00:07:16;6.78;;;3.33;;
25667;SDS011;18003;-33.830;151.202;2023-08-06T00:09:46;9.35;;;3.30;;
25667;SDS011;18003;-33.830;151.202;2023-08-06T00:12:16;10.18;;;3.35;;
25667;SDS011;18003;-33.830;151.202;2023-08-06T00:14:49;7.65;;;3.60;;
25667;SDS011;18003;-33.830;151.202;2023-08-06T00:17:22;9.85;;;3.52;;
25667;SDS011;18003;-33.830;151.202;2023-08-06T00:19:52;11.95;;;3.33;;
25667;SDS011;18003;-33.830;151.202;2023-08-06T00:22:22;8.40;;;3.20;;
25667;SDS011;18003;-33.830;151.202;2023-08-06T00:24:52;9.05;;;3.60;;
25667;SDS011;18003;-33.830;151.202;2023-08-06T00:27:23;11.63;;;3.35;;
25667;SDS011;18003;-33.830;151.202;2023-08-06T00:29:53;9.78;;;3.55;;
25667;SDS011;18003;-33.830;151.202;2023-08-06T00:32:23;8.30;;;3.37;;
25667;SDS011;18003;-33.830;151.202;2023-08-06T00:34:53;8.38;;;3.17;;
25667;SDS011;18003;-33.830;151.202;2023-08-06T00:37:23;8.63;;;3.17;;
25667;SDS011;18003;-33.830;151.202;2023-08-06T00:39:53;7.40;;;2.83;;
25667;SDS011;18003;-33.830;151.202;2023-08-06T00:42:23;8.78;;;3.10;;
25667;SDS011;18003;-33.830;151.202;2023-08-06T00:44:53;8.33;;;3.02;;
25667;SDS011;18003;-33.830;151.202;2023-08-06T00:47:23;9.50;;;2.90;;
25667;SDS011;18003;-33.830;151.202;2023-08-06T00:49:53;9.53;;;3.30;;
25667;SDS011;18003;-33.830;151.202;2023-08-06T00:52:23;7.47;;;2.95;;
25667;SDS011;18003;-33.830;151.202;2023-08-06T00:54:54;9.00;;;3.20;;
25667;SDS011;18003;-33.830;151.202;2023-08-06T00:57:24;8.20;;;3.37;;
25667;SDS011;18003;-33.830;151.202;2023-08-06T00:59:54;7.78;;;3.42;;
25667;SDS011;18003;-33.830;151.202;2023-08-06T01:02:24;7.70;;;3.37;;
25667;SDS011;18003;-33.830;151.202;2023-08-06T01:04:54;31.30;;;4.12;;
25667;SDS011;18003;-33.830;151.202;2023-08-06T01:13:11;95.40;;;11.25;;
25667;SDS011;18003;-33.830;151.202;2023-08-06T01:15:46;102.87;;;11.03;;
25667;SDS011;18003;-33.830;151.202;2023-08-06T01:18:17;101.22;;;9.75;;
25667;SDS011;18003;-33.830;151.202;2023-08-06T01:20:47;50.48;;;7.25;;
25667;SDS011;18003;-33.830;151.202;2023-08-06T01:23:17;36.00;;;5.33;;
25667;SDS011;18003;-33.830;151.202;2023-08-06T01:25:56;21.40;;;5.25;;
25667;SDS011;18003;-33.830;151.202;2023-08-06T01:34:04;17.60;;;3.72;;
25667;SDS011;18003;-33.830;151.202;2023-08-06T01:36:29;8.35;;;3.10;;
25667;SDS011;18003;-33.830;151.202;2023-08-06T01:39:00;9.18;;;3.20;;
25667;SDS011;18003;-33.830;151.202;2023-08-06T01:41:30;9.65;;;3.10;;
25667;SDS011;18003;-33.830;151.202;2023-08-06T01:44:00;10.25;;;2.90;;
25667;SDS011;18003;-33.830;151.202;2023-08-06T01:46:30;7.10;;;2.98;;
25667;SDS011;18003;-33.830;151.202;2023-08-06T01:49:00;7.10;;;2.70;;
25667;SDS011;18003;-33.830;151.202;2023-08-06T01:51:30;7.92;;;2.90;;
25667;SDS011;18003;-33.830;151.202;2023-08-06T01:54:00;9.33;;;2.70;;
25667;SDS011;18003;-33.830;151.202;2023-08-06T01:56:31;7.55;;;2.85;;
25667;SDS011;18003;-33.830;151.202;2023-08-06T01:59:01;8.30;;;3.30;;
25667;SDS011;18003;-33.830;151.202;2023-08-06T02:01:31;9.35;;;3.80;;
25667;SDS011;18003;-33.830;151.202;2023-08-06T02:04:01;7.08;;;2.70;;
25667;SDS011;18003;-33.830;151.202;2023-08-06T02:06:31;8.90;;;3.00;;
25667;SDS011;18003;-33.830;151.202;2023-08-06T02:09:00;8.83;;;2.83;;
25667;SDS011;18003;-33.830;151.202;2023-08-06T02:11:31;5.15;;;2.30;;
25667;SDS011;18003;-33.830;151.202;2023-08-06T02:14:01;8.20;;;2.60;;
25667;SDS011;18003;-33.830;151.202;2023-08-06T02:16:31;6.60;;;2.80;;
25667;SDS011;18003;-33.830;151.202;2023-08-06T02:19:01;4.67;;;2.85;;
25667;SDS011;18003;-33.830;151.202;2023-08-06T02:21:31;8.28;;;2.85;;
25667;SDS011;18003;-33.830;151.202;2023-08-06T02:24:00;8.20;;;2.60;;
25667;SDS011;18003;-33.830;151.202;2023-08-06T02:26:31;4.17;;;2.77;;
25667;SDS011;18003;-33.830;151.202;2023-08-06T02:29:01;11.10;;;2.95;;
25667;SDS011;18003;-33.830;151.202;2023-08-06T02:31:31;5.95;;;3.00;;
25667;SDS011;18003;-33.830;151.202;2023-08-06T02:34:01;7.45;;;2.85;;
25667;SDS011;18003;-33.830;151.202;2023-08-06T02:36:31;6.55;;;2.80;;
25667;SDS011;18003;-33.830;151.202;2023-08-06T02:39:00;11.12;;;2.92;;
25667;SDS011;18003;-33.830;151.202;2023-08-06T02:41:30;8.70;;;3.00;;
25667;SDS011;18003;-33.830;151.202;2023-08-06T02:44:00;4.90;;;2.80;;
25667;SDS011;18003;-33.830;151.202;2023-08-06T02:46:31;11.28;;;2.90;;
25667;SDS011;18003;-33.830;151.202;2023-08-06T02:49:01;8.15;;;3.10;;
25667;SDS011;18003;-33.830;151.202;2023-08-06T02:51:32;9.55;;;2.72;;
25667;SDS011;18003;-33.830;151.202;2023-08-06T02:54:02;7.78;;;2.60;;
25667;SDS011;18003;-33.830;151.202;2023-08-06T02:56:32;5.00;;;2.50;;
25667;SDS011;18003;-33.830;151.202;2023-08-06T02:59:03;7.55;;;2.60;;
25667;SDS011;18003;-33.830;151.202;2023-08-06T03:01:33;6.47;;;2.40;;
25667;SDS011;18003;-33.830;151.202;2023-08-06T03:04:03;5.67;;;2.77;;
25667;SDS011;18003;-33.830;151.202;2023-08-06T03:06:34;3.37;;;2.37;;
25667;SDS011;18003;-33.830;151.202;2023-08-06T03:09:04;8.18;;;2.65;;
25667;SDS011;18003;-33.830;151.202;2023-08-06T03:11:33;6.72;;;2.45;;
25667;SDS011;18003;-33.830;151.202;2023-08-06T03:14:03;8.18;;;2.75;;
25667;SDS011;18003;-33.830;151.202;2023-08-06T03:16:34;6.28;;;2.80;;
25667;SDS011;18003;-33.830;151.202;2023-08-06T03:19:04;6.03;;;2.80;;
25667;SDS011;18003;-33.830;151.202;2023-08-06T03:21:34;9.28;;;3.10;;
25667;SDS011;18003;-33.830;151.202;2023-08-06T03:24:04;5.50;;;3.02;;
25667;SDS011;18003;-33.830;151.202;2023-08-06T03:26:34;8.78;;;2.58;;
25667;SDS011;18003;-33.830;151.202;2023-08-06T03:29:04;7.85;;;3.00;;
25667;SDS011;18003;-33.830;151.202;2023-08-06T03:31:34;5.80;;;2.60;;
25667;SDS011;18003;-33.830;151.202;2023-08-06T03:34:04;5.28;;;2.47;;
25667;SDS011;18003;-33.830;151.202;2023-08-06T03:36:34;6.53;;;2.60;;
25667;SDS011;18003;-33.830;151.202;2023-08-06T03:39:04;5.67;;;2.67;;
25667;SDS011;18003;-33.830;151.202;2023-08-06T03:41:34;5.08;;;2.58;;
25667;SDS011;18003;-33.830;151.202;2023-08-06T03:44:04;7.22;;;2.40;;
25667;SDS011;18003;-33.830;151.202;2023-08-06T03:46:34;5.15;;;2.45;;
25667;SDS011;18003;-33.830;151.202;2023-08-06T03:49:04;6.37;;;2.35;;
25667;SDS011;18003;-33.830;151.202;2023-08-06T03:51:34;6.00;;;2.60;;
25667;SDS011;18003;-33.830;151.202;2023-08-06T03:54:03;4.70;;;2.62;;
25667;SDS011;18003;-33.830;151.202;2023-08-06T03:56:34;12.47;;;3.00;;
25667;SDS011;18003;-33.830;151.202;2023-08-06T03:59:04;7.33;;;2.95;;
25667;SDS011;18003;-33.830;151.202;2023-08-06T04:01:34;7.10;;;2.52;;
25667;SDS011;18003;-33.830;151.202;2023-08-06T04:04:04;7.53;;;2.77;;
25667;SDS011;18003;-33.830;151.202;2023-08-06T04:06:34;6.28;;;2.70;;
25667;SDS011;18003;-33.830;151.202;2023-08-06T04:09:04;5.87;;;2.87;;
25667;SDS011;18003;-33.830;151.202;2023-08-06T04:11:34;7.72;;;2.92;;
25667;SDS011;18003;-33.830;151.202;2023-08-06T04:14:04;9.25;;;3.22;;
25667;SDS011;18003;-33.830;151.202;2023-08-06T04:16:34;7.47;;;3.12;;
25667;SDS011;18003;-33.830;151.202;2023-08-06T04:19:04;6.03;;;2.40;;
25667;SDS011;18003;-33.830;151.202;2023-08-06T04:21:34;6.03;;;2.65;;
25667;SDS011;18003;-33.830;151.202;2023-08-06T04:24:04;5.58;;;2.60;;
25667;SDS011;18003;-33.830;151.202;2023-08-06T04:26:34;5.20;;;2.52;;
25667;SDS011;18003;-33.830;151.202;2023-08-06T04:29:04;8.33;;;3.12;;
25667;SDS011;18003;-33.830;151.202;2023-08-06T04:31:34;9.15;;;2.98;;
25667;SDS011;18003;-33.830;151.202;2023-08-06T04:34:04;7.35;;;3.00;;
25667;SDS011;18003;-33.830;151.202;2023-08-06T04:36:35;6.95;;;2.95;;
25667;SDS011;18003;-33.830;151.202;2023-08-06T04:39:05;7.67;;;2.98;;
25667;SDS011;18003;-33.830;151.202;2023-08-06T04:41:35;4.92;;;2.92;;
25667;SDS011;18003;-33.830;151.202;2023-08-06T04:44:05;6.70;;;2.90;;
25667;SDS011;18003;-33.830;151.202;2023-08-06T04:46:36;6.10;;;2.87;;
25667;SDS011;18003;-33.830;151.202;2023-08-06T04:49:06;3.58;;;2.77;;
25667;SDS011;18003;-33.830;151.202;2023-08-06T04:51:36;7.62;;;2.87;;
25667;SDS011;18003;-33.830;151.202;2023-08-06T04:54:06;5.92;;;2.83;;
25667;SDS011;18003;-33.830;151.202;2023-08-06T04:56:36;6.62;;;2.80;;
25667;SDS011;18003;-33.830;151.202;2023-08-06T04:59:06;4.85;;;2.42;;
25667;SDS011;18003;-33.830;151.202;2023-08-06T05:01:36;5.10;;;2.50;;
25667;SDS011;18003;-33.830;151.202;2023-08-06T05:04:06;6.25;;;2.50;;
25667;SDS011;18003;-33.830;151.202;2023-08-06T05:06:36;6.30;;;3.00;;
25667;SDS011;18003;-33.830;151.202;2023-08-06T05:09:07;7.37;;;3.07;;
25667;SDS011;18003;-33.830;151.202;2023-08-06T05:11:37;4.95;;;2.52;;
25667;SDS011;18003;-33.830;151.202;2023-08-06T05:14:07;10.03;;;2.90;;
25667;SDS011;18003;-33.830;151.202;2023-08-06T05:16:37;5.03;;;2.80;;
25667;SDS011;18003;-33.830;151.202;2023-08-06T05:19:07;7.00;;;2.58;;
25667;SDS011;18003;-33.830;151.202;2023-08-06T05:21:37;6.78;;;2.50;;
25667;SDS011;18003;-33.830;151.202;2023-08-06T05:24:07;5.55;;;2.70;;
25667;SDS011;18003;-33.830;151.202;2023-08-06T05:26:38;6.40;;;2.75;;
25667;SDS011;18003;-33.830;151.202;2023-08-06T05:29:08;5.58;;;2.42;;
25667;SDS011;18003;-33.830;151.202;2023-08-06T05:31:38;7.28;;;2.40;;
25667;SDS011;18003;-33.830;151.202;2023-08-06T05:34:08;4.40;;;2.10;;
25667;SDS011;18003;-33.830;151.202;2023-08-06T05:36:38;5.72;;;2.35;;
25667;SDS011;18003;-33.830;151.202;2023-08-06T05:39:08;5.35;;;2.08;;
25667;SDS011;18003;-33.830;151.202;2023-08-06T05:41:38;5.80;;;2.60;;
25667;SDS011;18003;-33.830;151.202;2023-08-06T05:44:08;4.47;;;2.60;;
25667;SDS011;18003;-33.830;151.202;2023-08-06T05:46:38;4.35;;;2.42;;
25667;SDS011;18003;-33.830;151.202;2023-08-06T05:49:09;4.33;;;2.30;;
25667;SDS011;18003;-33.830;151.202;2023-08-06T05:51:39;4.92;;;2.22;;
25667;SDS011;18003;-33.830;151.202;2023-08-06T05:54:10;6.72;;;2.42;;
25667;SDS011;18003;-33.830;151.202;2023-08-06T05:56:40;4.12;;;2.27;;
25667;SDS011;18003;-33.830;151.202;2023-08-06T05:59:10;4.80;;;2.80;;
25667;SDS011;18003;-33.830;151.202;2023-08-06T06:01:40;5.75;;;2.22;;
25667;SDS011;18003;-33.830;151.202;2023-08-06T06:04:10;5.75;;;2.52;;
25667;SDS011;18003;-33.830;151.202;2023-08-06T06:06:40;3.80;;;2.27;;
25667;SDS011;18003;-33.830;151.202;2023-08-06T06:09:11;4.67;;;2.50;;
25667;SDS011;18003;-33.830;151.202;2023-08-06T06:11:41;4.40;;;2.50;;
25667;SDS011;18003;-33.830;151.202;2023-08-06T06:14:11;2.37;;;2.17;;
25667;SDS011;18003;-33.830;151.202;2023-08-06T06:16:41;4.35;;;2.30;;
25667;SDS011;18003;-33.830;151.202;2023-08-06T06:19:11;6.25;;;2.50;;
25667;SDS011;18003;-33.830;151.202;2023-08-06T06:21:41;4.62;;;2.50;;
25667;SDS011;18003;-33.830;151.202;2023-08-06T06:24:11;3.72;;;2.40;;
25667;SDS011;18003;-33.830;151.202;2023-08-06T06:26:41;6.33;;;2.50;;
25667;SDS011;18003;-33.830;151.202;2023-08-06T06:29:11;4.90;;;2.33;;
25667;SDS011;18003;-33.830;151.202;2023-08-06T06:31:41;2.80;;;2.10;;
25667;SDS011;18003;-33.830;151.202;2023-08-06T06:34:12;3.02;;;2.10;;
25667;SDS011;18003;-33.830;151.202;2023-08-06T06:36:41;5.67;;;2.50;;
25667;SDS011;18003;-33.830;151.202;2023-08-06T06:39:11;3.25;;;1.87;;
25667;SDS011;18003;-33.830;151.202;2023-08-06T06:41:41;4.17;;;2.22;;
25667;SDS011;18003;-33.830;151.202;2023-08-06T06:44:13;3.22;;;2.10;;
25667;SDS011;18003;-33.830;151.202;2023-08-06T06:46:43;5.33;;;2.30;;
25667;SDS011;18003;-33.830;151.202;2023-08-06T06:49:13;3.90;;;2.08;;
25667;SDS011;18003;-33.830;151.202;2023-08-06T06:51:43;6.42;;;2.45;;
25667;SDS011;18003;-33.830;151.202;2023-08-06T06:54:13;4.03;;;2.10;;
25667;SDS011;18003;-33.830;151.202;2023-08-06T06:56:43;4.87;;;2.25;;
25667;SDS011;18003;-33.830;151.202;2023-08-06T06:59:13;3.83;;;2.10;;
25667;SDS011;18003;-33.830;151.202;2023-08-06T07:01:43;3.58;;;1.98;;
25667;SDS011;18003;-33.830;151.202;2023-08-06T07:04:13;7.58;;;2.40;;
25667;SDS011;18003;-33.830;151.202;2023-08-06T07:06:43;4.15;;;2.10;;
25667;SDS011;18003;-33.830;151.202;2023-08-06T07:09:13;3.80;;;2.10;;
25667;SDS011;18003;-33.830;151.202;2023-08-06T07:11:43;4.87;;;2.35;;
25667;SDS011;18003;-33.830;151.202;2023-08-06T07:14:13;4.92;;;2.30;;
25667;SDS011;18003;-33.830;151.202;2023-08-06T07:16:43;2.52;;;2.10;;
25667;SDS011;18003;-33.830;151.202;2023-08-06T07:19:13;3.30;;;2.12;;
25667;SDS011;18003;-33.830;151.202;2023-08-06T07:21:43;5.58;;;1.92;;
25667;SDS011;18003;-33.830;151.202;2023-08-06T07:24:13;4.10;;;1.85;;
25667;SDS011;18003;-33.830;151.202;2023-08-06T07:26:43;4.22;;;2.40;;
25667;SDS011;18003;-33.830;151.202;2023-08-06T07:29:13;4.08;;;2.10;;
25667;SDS011;18003;-33.830;151.202;2023-08-06T07:31:44;2.85;;;1.80;;
25667;SDS011;18003;-33.830;151.202;2023-08-06T07:34:14;3.92;;;1.90;;
25667;SDS011;18003;-33.830;151.202;2023-08-06T07:36:44;3.35;;;1.90;;
25667;SDS011;18003;-33.830;151.202;2023-08-06T07:39:14;3.35;;;1.82;;
25667;SDS011;18003;-33.830;151.202;2023-08-06T07:41:44;3.10;;;1.65;;
25667;SDS011;18003;-33.830;151.202;2023-08-06T07:44:14;4.67;;;1.80;;
25667;SDS011;18003;-33.830;151.202;2023-08-06T07:46:44;4.20;;;2.10;;
25667;SDS011;18003;-33.830;151.202;2023-08-06T07:49:14;5.83;;;2.33;;
25667;SDS011;18003;-33.830;151.202;2023-08-06T07:51:44;5.65;;;2.37;;
25667;SDS011;18003;-33.830;151.202;2023-08-06T07:54:15;3.12;;;1.90;;
25667;SDS011;18003;-33.830;151.202;2023-08-06T07:56:45;4.28;;;2.00;;
25667;SDS011;18003;-33.830;151.202;2023-08-06T07:59:15;4.05;;;2.20;;
25667;SDS011;18003;-33.830;151.202;2023-08-06T08:01:45;6.90;;;2.40;;
25667;SDS011;18003;-33.830;151.202;2023-08-06T08:04:15;11.20;;;2.50;;
25667;SDS011;18003;-33.830;151.202;2023-08-06T08:06:45;7.85;;;2.67;;
25667;SDS011;18003;-33.830;151.202;2023-08-06T08:09:15;4.78;;;2.40;;
25667;SDS011;18003;-33.830;151.202;2023-08-06T08:11:45;6.30;;;2.30;;
25667;SDS011;18003;-33.830;151.202;2023-08-06T08:14:15;4.37;;;2.20;;
25667;SDS011;18003;-33.830;151.202;2023-08-06T08:16:46;4.92;;;2.37;;
25667;SDS011;18003;-33.830;151.202;2023-08-06T08:19:16;6.50;;;2.50;;
25667;SDS011;18003;-33.830;151.202;2023-08-06T08:21:46;4.42;;;2.70;;
25667;SDS011;18003;-33.830;151.202;2023-08-06T08:24:16;2.72;;;2.50;;
25667;SDS011;18003;-33.830;151.202;2023-08-06T08:26:46;3.95;;;2.40;;
25667;SDS011;18003;-33.830;151.202;2023-08-06T08:29:16;4.83;;;2.90;;
25667;SDS011;18003;-33.830;151.202;2023-08-06T08:31:46;5.30;;;2.62;;
25667;SDS011;18003;-33.830;151.202;2023-08-06T08:34:20;3.72;;;2.50;;
25667;SDS011;18003;-33.830;151.202;2023-08-06T08:36:49;5.78;;;2.50;;
25667;SDS011;18003;-33.830;151.202;2023-08-06T08:39:19;6.65;;;3.08;;
25667;SDS011;18003;-33.830;151.202;2023-08-06T08:41:49;5.22;;;2.75;;
25667;SDS011;18003;-33.830;151.202;2023-08-06T08:44:20;4.40;;;2.70;;
25667;SDS011;18003;-33.830;151.202;2023-08-06T08:46:51;6.30;;;3.25;;
25667;SDS011;18003;-33.830;151.202;2023-08-06T08:49:21;4.75;;;3.30;;
25667;SDS011;18003;-33.830;151.202;2023-08-06T08:51:52;5.97;;;3.72;;
25667;SDS011;18003;-33.830;151.202;2023-08-06T08:54:22;7.47;;;4.42;;
25667;SDS011;18003;-33.830;151.202;2023-08-06T08:56:53;6.30;;;5.15;;
25667;SDS011;18003;-33.830;151.202;2023-08-06T08:59:23;7.80;;;5.00;;
25667;SDS011;18003;-33.830;151.202;2023-08-06T09:01:54;6.60;;;5.00;;
25667;SDS011;18003;-33.830;151.202;2023-08-06T09:04:24;8.23;;;5.10;;
25667;SDS011;18003;-33.830;151.202;2023-08-06T09:06:57;5.67;;;4.10;;
25667;SDS011;18003;-33.830;151.202;2023-08-06T09:09:31;6.87;;;4.37;;
25667;SDS011;18003;-33.830;151.202;2023-08-06T09:12:06;6.10;;;4.50;;
25667;SDS011;18003;-33.830;151.202;2023-08-06T09:14:35;6.67;;;4.28;;
25667;SDS011;18003;-33.830;151.202;2023-08-06T09:17:05;7.45;;;4.10;;
25667;SDS011;18003;-33.830;151.202;2023-08-06T09:19:36;7.62;;;4.53;;
25667;SDS011;18003;-33.830;151.202;2023-08-06T09:22:07;5.25;;;4.03;;
25667;SDS011;18003;-33.830;151.202;2023-08-06T09:24:40;6.12;;;4.10;;
25667;SDS011;18003;-33.830;151.202;2023-08-06T09:27:11;8.40;;;4.50;;
25667;SDS011;18003;-33.830;151.202;2023-08-06T09:29:45;7.62;;;4.70;;
25667;SDS011;18003;-33.830;151.202;2023-08-06T09:32:15;7.92;;;4.47;;
25667;SDS011;18003;-33.830;151.202;2023-08-06T09:34:45;5.45;;;4.37;;
25667;SDS011;18003;-33.830;151.202;2023-08-06T09:37:16;4.90;;;4.20;;
25667;SDS011;18003;-33.830;151.202;2023-08-06T09:39:46;5.15;;;4.03;;
25667;SDS011;18003;-33.830;151.202;2023-08-06T09:42:16;4.83;;;4.10;;
25667;SDS011;18003;-33.830;151.202;2023-08-06T09:44:46;5.60;;;3.67;;
25667;SDS011;18003;-33.830;151.202;2023-08-06T09:47:16;7.62;;;3.67;;
25667;SDS011;18003;-33.830;151.202;2023-08-06T09:49:47;5.87;;;3.70;;
25667;SDS011;18003;-33.830;151.202;2023-08-06T09:52:18;7.37;;;4.22;;
25667;SDS011;18003;-33.830;151.202;2023-08-06T09:54:49;4.72;;;3.77;;
25667;SDS011;18003;-33.830;151.202;2023-08-06T09:57:21;6.03;;;4.03;;
25667;SDS011;18003;-33.830;151.202;2023-08-06T09:59:52;6.28;;;3.65;;
25667;SDS011;18003;-33.830;151.202;2023-08-06T10:02:22;7.17;;;3.70;;
25667;SDS011;18003;-33.830;151.202;2023-08-06T10:04:54;4.85;;;3.77;;
25667;SDS011;18003;-33.830;151.202;2023-08-06T10:07:29;6.17;;;3.77;;
25667;SDS011;18003;-33.830;151.202;2023-08-06T10:09:59;6.27;;;3.70;;
25667;SDS011;18003;-33.830;151.202;2023-08-06T10:12:31;4.67;;;3.22;;
25667;SDS011;18003;-33.830;151.202;2023-08-06T10:15:03;4.37;;;3.58;;
25667;SDS011;18003;-33.830;151.202;2023-08-06T10:17:35;6.35;;;3.87;;
25667;SDS011;18003;-33.830;151.202;2023-08-06T10:20:06;4.72;;;3.85;;
25667;SDS011;18003;-33.830;151.202;2023-08-06T10:22:37;5.37;;;3.85;;
25667;SDS011;18003;-33.830;151.202;2023-08-06T10:25:09;6.47;;;4.10;;
25667;SDS011;18003;-33.830;151.202;2023-08-06T10:32:58;6.55;;;4.10;;
25667;SDS011;18003;-33.830;151.202;2023-08-06T10:35:36;4.60;;;3.52;;
25667;SDS011;18003;-33.830;151.202;2023-08-06T10:38:20;7.05;;;3.75;;
25667;SDS011;18003;-33.830;151.202;2023-08-06T10:43:30;5.90;;;3.30;;
25667;SDS011;18003;-33.830;151.202;2023-08-06T10:46:01;5.95;;;3.83;;
25667;SDS011;18003;-33.830;151.202;2023-08-06T10:48:36;7.22;;;3.58;;
25667;SDS011;18003;-33.830;151.202;2023-08-06T10:51:10;7.33;;;3.60;;
25667;SDS011;18003;-33.830;151.202;2023-08-06T10:53:49;6.50;;;3.47;;
25667;SDS011;18003;-33.830;151.202;2023-08-06T10:56:15;6.60;;;3.58;;
25667;SDS011;18003;-33.830;151.202;2023-08-06T10:58:47;4.92;;;3.37;;
25667;SDS011;18003;-33.830;151.202;2023-08-06T11:01:17;6.83;;;4.53;;
25667;SDS011;18003;-33.830;151.202;2023-08-06T11:03:49;3.87;;;3.47;;
25667;SDS011;18003;-33.830;151.202;2023-08-06T11:06:20;5.20;;;3.70;;
25667;SDS011;18003;-33.830;151.202;2023-08-06T11:08:51;6.35;;;3.67;;
25667;SDS011;18003;-33.830;151.202;2023-08-06T11:11:22;6.30;;;3.77;;
25667;SDS011;18003;-33.830;151.202;2023-08-06T11:13:53;5.75;;;3.77;;
25667;SDS011;18003;-33.830;151.202;2023-08-06T11:16:23;6.83;;;3.70;;
25667;SDS011;18003;-33.830;151.202;2023-08-06T11:18:54;6.80;;;3.65;;
25667;SDS011;18003;-33.830;151.202;2023-08-06T11:21:24;6.12;;;3.50;;
25667;SDS011;18003;-33.830;151.202;2023-08-06T11:23:55;5.33;;;3.50;;
25667;SDS011;18003;-33.830;151.202;2023-08-06T11:26:25;5.25;;;3.77;;
25667;SDS011;18003;-33.830;151.202;2023-08-06T11:28:55;4.85;;;3.72;;
25667;SDS011;18003;-33.830;151.202;2023-08-06T11:31:26;7.10;;;4.22;;
25667;SDS011;18003;-33.830;151.202;2023-08-06T11:33:56;5.20;;;4.12;;
25667;SDS011;18003;-33.830;151.202;2023-08-06T11:36:29;6.47;;;3.92;;
25667;SDS011;18003;-33.830;151.202;2023-08-06T11:39:03;5.45;;;3.60;;
25667;SDS011;18003;-33.830;151.202;2023-08-06T11:41:36;5.47;;;3.62;;
25667;SDS011;18003;-33.830;151.202;2023-08-06T11:44:02;6.42;;;4.08;;
25667;SDS011;18003;-33.830;151.202;2023-08-06T11:50:06;6.17;;;3.98;;
25667;SDS011;18003;-33.830;151.202;2023-08-06T11:52:13;7.53;;;3.80;;
25667;SDS011;18003;-33.830;151.202;2023-08-06T11:54:40;6.37;;;4.10;;
25667;SDS011;18003;-33.830;151.202;2023-08-06T11:57:10;5.08;;;3.65;;
25667;SDS011;18003;-33.830;151.202;2023-08-06T11:59:40;4.87;;;3.90;;
25667;SDS011;18003;-33.830;151.202;2023-08-06T12:02:10;5.85;;;3.92;;
25667;SDS011;18003;-33.830;151.202;2023-08-06T12:07:28;6.12;;;4.05;;
25667;SDS011;18003;-33.830;151.202;2023-08-06T12:10:00;6.17;;;4.20;;
25667;SDS011;18003;-33.830;151.202;2023-08-06T12:12:29;5.95;;;4.00;;
25667;SDS011;18003;-33.830;151.202;2023-08-06T12:14:59;6.97;;;4.45;;
25667;SDS011;18003;-33.830;151.202;2023-08-06T12:17:29;6.05;;;4.40;;
25667;SDS011;18003;-33.830;151.202;2023-08-06T12:20:00;5.85;;;4.22;;
25667;SDS011;18003;-33.830;151.202;2023-08-06T12:22:34;4.85;;;3.90;;
25667;SDS011;18003;-33.830;151.202;2023-08-06T12:27:38;4.95;;;4.20;;
25667;SDS011;18003;-33.830;151.202;2023-08-06T12:30:09;5.17;;;3.80;;
25667;SDS011;18003;-33.830;151.202;2023-08-06T12:32:40;5.87;;;4.05;;
25667;SDS011;18003;-33.830;151.202;2023-08-06T12:35:11;7.85;;;4.50;;
25667;SDS011;18003;-33.830;151.202;2023-08-06T12:37:41;6.10;;;4.28;;
25667;SDS011;18003;-33.830;151.202;2023-08-06T12:40:12;6.53;;;4.30;;
25667;SDS011;18003;-33.830;151.202;2023-08-06T12:42:42;7.22;;;4.40;;
25667;SDS011;18003;-33.830;151.202;2023-08-06T12:45:12;7.67;;;4.95;;
25667;SDS011;18003;-33.830;151.202;2023-08-06T12:47:42;8.55;;;4.42;;
25667;SDS011;18003;-33.830;151.202;2023-08-06T12:50:12;8.90;;;4.70;;
25667;SDS011;18003;-33.830;151.202;2023-08-06T12:52:43;8.80;;;5.05;;
25667;SDS011;18003;-33.830;151.202;2023-08-06T12:55:13;5.53;;;4.28;;
25667;SDS011;18003;-33.830;151.202;2023-08-06T12:57:43;6.42;;;4.80;;
25667;SDS011;18003;-33.830;151.202;2023-08-06T13:00:14;7.87;;;5.50;;
25667;SDS011;18003;-33.830;151.202;2023-08-06T13:02:44;7.30;;;4.80;;
25667;SDS011;18003;-33.830;151.202;2023-08-06T13:05:14;7.72;;;5.08;;
25667;SDS011;18003;-33.830;151.202;2023-08-06T13:07:44;9.45;;;5.20;;
25667;SDS011;18003;-33.830;151.202;2023-08-06T13:10:14;7.05;;;4.87;;
25667;SDS011;18003;-33.830;151.202;2023-08-06T13:12:44;8.05;;;5.40;;
25667;SDS011;18003;-33.830;151.202;2023-08-06T13:15:14;8.18;;;5.15;;
25667;SDS011;18003;-33.830;151.202;2023-08-06T13:17:45;9.75;;;6.05;;
25667;SDS011;18003;-33.830;151.202;2023-08-06T13:20:15;8.18;;;5.15;;
25667;SDS011;18003;-33.830;151.202;2023-08-06T13:22:46;7.83;;;5.45;;
25667;SDS011;18003;-33.830;151.202;2023-08-06T13:25:18;9.30;;;5.28;;
25667;SDS011;18003;-33.830;151.202;2023-08-06T13:27:49;6.47;;;5.17;;
25667;SDS011;18003;-33.830;151.202;2023-08-06T13:30:19;7.37;;;5.35;;
25667;SDS011;18003;-33.830;151.202;2023-08-06T13:32:49;7.12;;;5.28;;
25667;SDS011;18003;-33.830;151.202;2023-08-06T13:35:19;6.25;;;5.20;;
25667;SDS011;18003;-33.830;151.202;2023-08-06T13:37:49;8.48;;;5.42;;
25667;SDS011;18003;-33.830;151.202;2023-08-06T13:40:20;6.30;;;5.33;;
25667;SDS011;18003;-33.830;151.202;2023-08-06T13:42:50;7.40;;;5.30;;
25667;SDS011;18003;-33.830;151.202;2023-08-06T13:45:20;9.78;;;5.25;;
25667;SDS011;18003;-33.830;151.202;2023-08-06T13:47:50;8.30;;;5.00;;
25667;SDS011;18003;-33.830;151.202;2023-08-06T13:50:20;9.45;;;5.20;;
25667;SDS011;18003;-33.830;151.202;2023-08-06T13:52:51;10.08;;;5.42;;
25667;SDS011;18003;-33.830;151.202;2023-08-06T13:55:22;9.05;;;5.28;;
25667;SDS011;18003;-33.830;151.202;2023-08-06T13:57:53;8.50;;;5.30;;
25667;SDS011;18003;-33.830;151.202;2023-08-06T14:00:23;9.37;;;5.27;;
25667;SDS011;18003;-33.830;151.202;2023-08-06T14:02:53;10.70;;;5.42;;
25667;SDS011;18003;-33.830;151.202;2023-08-06T14:05:23;7.60;;;5.35;;
25667;SDS011;18003;-33.830;151.202;2023-08-06T14:07:54;7.62;;;5.33;;
25667;SDS011;18003;-33.830;151.202;2023-08-06T14:10:24;10.03;;;5.72;;
25667;SDS011;18003;-33.830;151.202;2023-08-06T14:12:53;7.62;;;5.45;;
25667;SDS011;18003;-33.830;151.202;2023-08-06T14:15:23;7.22;;;5.37;;
25667;SDS011;18003;-33.830;151.202;2023-08-06T14:17:53;7.75;;;5.53;;
25667;SDS011;18003;-33.830;151.202;2023-08-06T14:20:24;8.55;;;5.42;;
25667;SDS011;18003;-33.830;151.202;2023-08-06T14:22:54;6.80;;;5.10;;
25667;SDS011;18003;-33.830;151.202;2023-08-06T14:25:24;6.17;;;4.95;;
25667;SDS011;18003;-33.830;151.202;2023-08-06T14:27:54;8.35;;;5.72;;
25667;SDS011;18003;-33.830;151.202;2023-08-06T14:30:24;7.05;;;5.10;;
25667;SDS011;18003;-33.830;151.202;2023-08-06T14:32:55;5.67;;;4.70;;
25667;SDS011;18003;-33.830;151.202;2023-08-06T14:35:26;5.97;;;5.35;;
25667;SDS011;18003;-33.830;151.202;2023-08-06T14:37:56;6.17;;;5.15;;
25667;SDS011;18003;-33.830;151.202;2023-08-06T14:40:26;7.47;;;5.55;;
25667;SDS011;18003;-33.830;151.202;2023-08-06T14:42:57;6.75;;;5.28;;
25667;SDS011;18003;-33.830;151.202;2023-08-06T14:45:27;6.37;;;5.20;;
25667;SDS011;18003;-33.830;151.202;2023-08-06T14:47:57;5.50;;;4.90;;
25667;SDS011;18003;-33.830;151.202;2023-08-06T14:50:27;6.75;;;5.03;;
25667;SDS011;18003;-33.830;151.202;2023-08-06T14:52:58;5.83;;;5.28;;
25667;SDS011;18003;-33.830;151.202;2023-08-06T14:55:29;6.53;;;5.25;;